createdAt,value
2023-03-29T00:01:03.565Z,3.15
2023-03-29T00:03:33.983Z,2.50
2023-03-29T00:06:04.054Z,2.72
2023-03-29T00:08:35.205Z,2.97
2023-03-29T00:11:03.958Z,2.63
2023-03-29T00:13:32.542Z,2.55
2023-03-29T00:16:00.793Z,2.40
2023-03-29T00:18:28.912Z,2.40
2023-03-29T00:20:57.198Z,2.03
2023-03-29T00:23:26.201Z,2.67
2023-03-29T00:25:57.057Z,2.40
2023-03-29T00:28:25.901Z,2.40
2023-03-29T00:30:55.209Z,2.23
2023-03-29T00:33:23.418Z,2.60
2023-03-29T00:35:54.350Z,2.37
2023-03-29T00:38:22.636Z,2.13
2023-03-29T00:40:50.852Z,2.40
2023-03-29T00:43:20.638Z,2.10
2023-03-29T00:45:48.848Z,2.23
2023-03-29T00:48:19.637Z,2.47
2023-03-29T00:50:51.727Z,2.40
2023-03-29T00:53:26.197Z,2.28
2023-03-29T00:55:59.280Z,2.43
2023-03-29T00:58:35.722Z,2.40
2023-03-29T01:01:11.541Z,2.50
2023-03-29T01:03:46.803Z,2.10
2023-03-29T01:06:18.838Z,2.13
2023-03-29T01:08:52.310Z,3.55
2023-03-29T01:11:26.579Z,2.20
2023-03-29T01:14:00.039Z,2.10
2023-03-29T01:16:30.445Z,2.30
2023-03-29T01:19:01.115Z,2.40
2023-03-29T01:21:34.863Z,2.87
2023-03-29T01:24:33.266Z,2.67
2023-03-29T01:27:11.360Z,2.50
2023-03-29T01:29:45.553Z,2.65
2023-03-29T01:32:18.348Z,2.60
2023-03-29T01:34:51.544Z,2.50
2023-03-29T01:37:24.752Z,2.53
2023-03-29T01:39:53.784Z,2.67
2023-03-29T01:42:33.272Z,2.53
2023-03-29T01:45:13.444Z,2.47
2023-03-29T01:47:50.493Z,2.60
2023-03-29T01:50:22.818Z,2.50
2023-03-29T01:52:57.803Z,3.03
2023-03-29T01:55:31.487Z,2.50
2023-03-29T01:58:02.958Z,3.53
2023-03-29T02:00:35.278Z,2.80
2023-03-29T02:03:07.599Z,3.10
2023-03-29T02:05:36.958Z,2.70
2023-03-29T02:08:08.651Z,2.60
2023-03-29T02:10:38.055Z,2.20
2023-03-29T02:13:06.949Z,2.70
2023-03-29T02:15:37.331Z,2.60
2023-03-29T02:18:06.945Z,2.93
2023-03-29T02:20:38.984Z,2.77
2023-03-29T02:23:12.544Z,2.60
2023-03-29T02:25:41.480Z,2.03
2023-03-29T02:28:10.145Z,2.50
2023-03-29T02:30:49.428Z,2.53
2023-03-29T02:33:21.797Z,2.73
2023-03-29T02:35:56.729Z,2.20
2023-03-29T02:38:27.827Z,2.53
2023-03-29T02:40:57.859Z,2.33
2023-03-29T02:43:28.328Z,1.77
2023-03-29T02:45:58.374Z,2.50
2023-03-29T02:48:29.632Z,2.67
2023-03-29T02:51:02.447Z,2.30
2023-03-29T02:53:34.744Z,1.83
2023-03-29T02:56:03.455Z,2.20
2023-03-29T02:58:32.311Z,2.17
2023-03-29T03:01:03.768Z,2.40
2023-03-29T03:03:33.088Z,2.57
2023-03-29T03:06:04.003Z,2.17
2023-03-29T03:08:32.849Z,2.30
2023-03-29T03:11:01.145Z,2.10
2023-03-29T03:13:29.807Z,2.27
2023-03-29T03:15:58.057Z,2.50
2023-03-29T03:18:27.985Z,2.40
2023-03-29T03:20:57.562Z,2.53
2023-03-29T03:23:26.046Z,2.77
2023-03-29T03:25:55.973Z,2.80
2023-03-29T03:28:27.370Z,2.30
2023-03-29T03:30:56.417Z,2.37
2023-03-29T03:33:46.806Z,2.33
2023-03-29T03:36:37.474Z,2.50
2023-03-29T03:39:07.297Z,2.60
2023-03-29T03:41:35.904Z,2.60
2023-03-29T03:44:04.668Z,2.50
2023-03-29T03:46:33.666Z,2.43
2023-03-29T03:49:04.501Z,2.60
2023-03-29T03:51:41.905Z,2.40
2023-03-29T03:54:10.625Z,2.70
2023-03-29T03:56:41.352Z,2.63
2023-03-29T03:59:19.939Z,2.50
2023-03-29T04:02:01.452Z,2.60
2023-03-29T04:04:31.888Z,2.90
2023-03-29T04:07:20.395Z,2.70
2023-03-29T04:10:08.971Z,2.50
2023-03-29T04:12:49.433Z,2.70
2023-03-29T04:15:20.243Z,2.87
2023-03-29T04:17:57.068Z,2.80
2023-03-29T04:20:34.171Z,2.73
2023-03-29T04:23:02.910Z,2.40
2023-03-29T04:25:32.353Z,2.60
2023-03-29T04:28:20.482Z,3.17
2023-03-29T04:30:53.480Z,2.70
2023-03-29T04:33:47.592Z,2.73
2023-03-29T04:36:18.219Z,3.00
2023-03-29T04:38:47.952Z,2.77
2023-03-29T04:41:18.116Z,3.17
2023-03-29T04:43:46.661Z,2.70
2023-03-29T04:46:32.411Z,2.53
2023-03-29T04:49:07.291Z,2.80
2023-03-29T04:51:40.725Z,2.80
2023-03-29T04:54:10.152Z,3.20
2023-03-29T04:57:04.104Z,2.80
2023-03-29T04:59:49.212Z,3.10
2023-03-29T05:02:40.361Z,2.90
2023-03-29T05:05:09.344Z,2.93
2023-03-29T05:07:46.864Z,3.20
2023-03-29T05:10:16.687Z,2.50
2023-03-29T05:12:45.440Z,3.20
2023-03-29T05:15:14.838Z,3.00
2023-03-29T05:17:43.981Z,2.87
2023-03-29T05:20:14.604Z,2.97
2023-03-29T05:22:46.454Z,3.70
2023-03-29T05:25:27.313Z,4.80
2023-03-29T05:27:56.243Z,3.97
2023-03-29T05:30:24.473Z,3.53
2023-03-29T05:33:00.279Z,3.33
2023-03-29T05:35:30.456Z,3.57
2023-03-29T05:38:01.840Z,2.97
2023-03-29T05:40:31.424Z,3.40
2023-03-29T05:43:14.573Z,3.60
2023-03-29T05:45:43.235Z,3.10
2023-03-29T05:48:11.570Z,3.27
2023-03-29T05:50:47.143Z,4.27
2023-03-29T05:53:16.973Z,3.77
2023-03-29T05:55:46.690Z,3.70
2023-03-29T05:58:20.503Z,3.20
2023-03-29T06:00:51.338Z,3.75
2023-03-29T06:03:50.334Z,3.25
2023-03-29T06:06:21.563Z,2.90
2023-03-29T06:08:51.804Z,3.33
2023-03-29T06:11:28.665Z,3.00
2023-03-29T06:14:15.887Z,3.15
2023-03-29T06:16:51.779Z,3.25
2023-03-29T06:19:20.537Z,2.90
2023-03-29T06:21:49.088Z,3.15
2023-03-29T06:24:24.908Z,2.95
2023-03-29T06:27:00.406Z,3.28
2023-03-29T06:29:29.724Z,2.65
2023-03-29T06:31:58.110Z,3.90
2023-03-29T06:34:47.141Z,3.92
2023-03-29T06:37:31.942Z,2.75
2023-03-29T06:40:21.538Z,3.15
2023-03-29T06:42:51.161Z,3.10
2023-03-29T06:45:39.995Z,3.58
2023-03-29T06:48:15.107Z,3.03
2023-03-29T06:50:43.509Z,2.90
2023-03-29T06:53:15.655Z,3.67
2023-03-29T06:55:47.888Z,3.13
2023-03-29T06:58:37.576Z,3.50
2023-03-29T07:01:15.349Z,2.85
2023-03-29T07:03:49.777Z,3.33
2023-03-29T07:06:23.724Z,3.30
2023-03-29T07:08:52.506Z,3.92
2023-03-29T07:11:54.550Z,3.45
2023-03-29T07:14:26.643Z,3.05
2023-03-29T07:16:55.030Z,3.35
2023-03-29T07:19:31.124Z,2.55
2023-03-29T07:22:19.489Z,2.72
2023-03-29T07:24:53.256Z,2.80
2023-03-29T07:27:23.661Z,2.92
2023-03-29T07:29:52.230Z,3.03
2023-03-29T07:32:23.526Z,2.95
2023-03-29T07:35:30.934Z,4.88
2023-03-29T07:37:59.855Z,3.25
2023-03-29T07:40:29.462Z,3.50
2023-03-29T07:42:59.670Z,3.42
2023-03-29T07:45:32.461Z,2.88
2023-03-29T07:48:12.712Z,3.45
2023-03-29T07:50:53.232Z,2.70
2023-03-29T07:53:27.133Z,2.97
2023-03-29T07:55:57.849Z,2.75
2023-03-29T07:58:50.856Z,2.90
2023-03-29T08:01:20.683Z,3.45
2023-03-29T08:04:16.876Z,3.00
2023-03-29T08:07:03.884Z,4.28
2023-03-29T08:09:52.232Z,3.03
2023-03-29T08:12:25.024Z,3.00
2023-03-29T08:14:55.347Z,4.13
2023-03-29T08:17:28.705Z,2.90
2023-03-29T08:19:57.170Z,3.05
2023-03-29T08:22:26.397Z,2.53
2023-03-29T08:25:13.683Z,2.65
2023-03-29T08:27:46.362Z,3.05
2023-03-29T08:30:21.208Z,3.03
2023-03-29T08:32:52.195Z,3.05
2023-03-29T08:35:23.271Z,2.78
2023-03-29T08:38:12.560Z,3.33
2023-03-29T08:40:41.373Z,3.22
2023-03-29T08:43:33.406Z,4.80
2023-03-29T08:46:35.725Z,3.60
2023-03-29T08:49:30.743Z,6.68
2023-03-29T08:52:02.350Z,3.67
2023-03-29T08:54:37.991Z,2.95
2023-03-29T08:57:18.136Z,2.70
2023-03-29T08:59:55.678Z,3.95
2023-03-29T09:02:28.611Z,3.05
2023-03-29T09:05:08.756Z,2.58
2023-03-29T09:07:55.001Z,2.60
2023-03-29T09:10:30.996Z,3.30
2023-03-29T09:13:12.496Z,3.10
2023-03-29T09:15:49.550Z,4.55
2023-03-29T09:18:45.112Z,2.88
2023-03-29T09:21:20.460Z,4.07
2023-03-29T09:24:11.030Z,4.80
2023-03-29T09:27:05.837Z,3.97
2023-03-29T09:29:57.823Z,2.78
2023-03-29T09:32:48.529Z,2.78
2023-03-29T09:35:24.386Z,2.35
2023-03-29T09:37:55.793Z,2.85
2023-03-29T09:40:28.906Z,3.53
2023-03-29T09:43:09.114Z,3.33
2023-03-29T09:45:38.589Z,2.92
2023-03-29T09:48:13.646Z,3.35
2023-03-29T09:50:47.883Z,3.38
2023-03-29T09:53:16.991Z,2.95
2023-03-29T09:55:53.068Z,2.90
2023-03-29T09:58:36.297Z,2.42
2023-03-29T10:01:09.261Z,2.60
2023-03-29T10:03:38.282Z,2.58
2023-03-29T10:06:20.701Z,3.00
2023-03-29T10:08:58.843Z,2.70
2023-03-29T10:11:35.493Z,3.20
2023-03-29T10:14:07.181Z,2.72
2023-03-29T10:16:38.692Z,2.60
2023-03-29T10:19:22.461Z,2.60
2023-03-29T10:21:54.044Z,2.70
2023-03-29T10:24:23.749Z,2.47
2023-03-29T10:26:55.527Z,2.38
2023-03-29T10:29:24.994Z,3.38
2023-03-29T10:31:53.822Z,2.38
2023-03-29T10:34:28.118Z,2.95
2023-03-29T10:37:00.990Z,2.92
2023-03-29T10:39:32.028Z,3.60
2023-03-29T10:42:01.341Z,3.58
2023-03-29T10:44:33.278Z,2.83
2023-03-29T10:47:10.863Z,2.92
2023-03-29T10:49:44.140Z,3.30
2023-03-29T10:52:16.500Z,2.60
2023-03-29T10:54:45.535Z,2.40
2023-03-29T10:57:17.478Z,4.13
2023-03-29T10:59:57.697Z,2.80
2023-03-29T11:03:15.905Z,2.60
2023-03-29T11:05:50.437Z,2.50
2023-03-29T11:08:48.410Z,2.75
2023-03-29T11:11:32.832Z,2.50
2023-03-29T11:14:08.655Z,2.63
2023-03-29T11:16:46.202Z,2.38
2023-03-29T11:19:27.202Z,2.55
2023-03-29T11:22:05.905Z,2.70
2023-03-29T11:24:55.120Z,2.45
2023-03-29T11:27:33.891Z,2.70
2023-03-29T11:30:08.937Z,2.88
2023-03-29T11:32:47.585Z,2.22
2023-03-29T11:35:34.219Z,2.17
2023-03-29T11:38:09.397Z,2.60
2023-03-29T11:40:51.400Z,2.03
2023-03-29T11:43:26.566Z,2.50
2023-03-29T11:45:58.777Z,2.15
2023-03-29T11:48:32.425Z,2.03
2023-03-29T11:51:10.616Z,1.95
2023-03-29T11:53:47.084Z,2.97
2023-03-29T11:56:23.419Z,2.03
2023-03-29T11:58:58.484Z,2.30
2023-03-29T12:01:34.352Z,2.60
2023-03-29T12:04:07.775Z,2.50
2023-03-29T12:06:41.843Z,2.92
2023-03-29T12:09:18.425Z,2.85
2023-03-29T12:11:54.121Z,2.75
2023-03-29T12:14:28.196Z,3.30
2023-03-29T12:17:01.003Z,2.70
2023-03-29T12:19:33.114Z,2.30
2023-03-29T12:22:02.260Z,2.50
2023-03-29T12:24:35.192Z,2.80
2023-03-29T12:27:26.496Z,2.90
2023-03-29T12:30:29.137Z,3.45
2023-03-29T12:33:15.134Z,3.35
2023-03-29T12:36:14.869Z,3.55
2023-03-29T12:39:02.260Z,3.25
2023-03-29T12:41:51.947Z,2.85
2023-03-29T12:44:52.840Z,2.80
2023-03-29T12:47:30.079Z,2.92
2023-03-29T12:50:00.432Z,3.42
2023-03-29T12:52:33.279Z,4.25
2023-03-29T12:55:04.482Z,3.70
2023-03-29T12:57:42.247Z,6.30
2023-03-29T13:00:32.343Z,5.13
2023-03-29T13:03:03.219Z,3.60
2023-03-29T13:05:34.237Z,4.30
2023-03-29T13:08:20.188Z,3.65
2023-03-29T13:10:55.472Z,2.95
2023-03-29T13:13:28.800Z,2.40
2023-03-29T13:16:11.771Z,2.20
2023-03-29T13:18:55.960Z,2.13
2023-03-29T13:21:32.904Z,3.38
2023-03-29T13:24:07.922Z,1.92
2023-03-29T13:26:47.902Z,2.45
2023-03-29T13:29:51.151Z,2.10
2023-03-29T13:32:37.904Z,1.90
2023-03-29T13:35:16.501Z,2.65
2023-03-29T13:37:56.744Z,2.28
2023-03-29T13:40:42.935Z,2.38
2023-03-29T13:43:20.332Z,2.60
2023-03-29T13:46:06.884Z,2.08
2023-03-29T13:48:55.085Z,1.98
2023-03-29T13:51:32.682Z,1.85
2023-03-29T13:54:08.438Z,2.30
2023-03-29T13:56:43.333Z,2.00
2023-03-29T13:59:16.654Z,2.40
2023-03-29T14:01:51.636Z,2.47
2023-03-29T14:04:25.548Z,3.15
2023-03-29T14:06:56.488Z,2.85
2023-03-29T14:09:30.002Z,2.47
2023-03-29T14:12:00.959Z,2.80
2023-03-29T14:14:33.103Z,4.57
2023-03-29T14:17:02.681Z,5.07
2023-03-29T14:19:36.217Z,3.40
2023-03-29T14:22:09.392Z,2.70
2023-03-29T14:24:41.102Z,4.32
2023-03-29T14:27:13.596Z,3.67
2023-03-29T14:29:41.925Z,3.83
2023-03-29T14:32:11.822Z,3.03
2023-03-29T14:34:41.762Z,3.22
2023-03-29T14:37:12.156Z,2.80
2023-03-29T14:39:42.088Z,3.22
2023-03-29T14:42:19.770Z,3.33
2023-03-29T14:44:49.075Z,2.92
2023-03-29T14:47:22.136Z,2.97
2023-03-29T14:49:54.367Z,2.92
2023-03-29T14:52:22.999Z,3.47
2023-03-29T14:54:56.547Z,3.00
2023-03-29T14:57:28.394Z,3.40
2023-03-29T15:00:01.268Z,3.05
2023-03-29T15:02:31.976Z,3.08
2023-03-29T15:05:04.979Z,4.78
2023-03-29T15:07:36.468Z,3.80
2023-03-29T15:10:06.613Z,5.45
2023-03-29T15:12:35.442Z,3.80
2023-03-29T15:15:04.250Z,3.60
2023-03-29T15:17:47.508Z,3.50
2023-03-29T15:20:25.159Z,2.97
2023-03-29T15:23:04.152Z,3.30
2023-03-29T15:25:36.411Z,3.00
2023-03-29T15:28:05.309Z,3.60
2023-03-29T15:30:36.811Z,3.10
2023-03-29T15:33:20.789Z,4.03
2023-03-29T15:35:53.752Z,4.10
2023-03-29T15:38:27.700Z,3.00
2023-03-29T15:40:58.938Z,3.38
2023-03-29T15:43:27.298Z,3.65
2023-03-29T15:45:55.511Z,3.63
2023-03-29T15:48:26.629Z,3.78
2023-03-29T15:50:58.791Z,3.65
2023-03-29T15:53:29.071Z,3.03
2023-03-29T15:56:01.674Z,3.53
2023-03-29T15:58:33.649Z,3.17
2023-03-29T16:01:13.098Z,3.38
2023-03-29T16:03:41.675Z,3.13
2023-03-29T16:06:13.206Z,4.15
2023-03-29T16:08:41.871Z,3.42
2023-03-29T16:11:10.291Z,3.80
2023-03-29T16:13:38.641Z,3.28
2023-03-29T16:16:08.618Z,3.20
2023-03-29T16:18:36.963Z,3.05
2023-03-29T16:21:06.321Z,3.25
2023-03-29T16:23:36.042Z,3.70
2023-03-29T16:26:06.650Z,3.45
2023-03-29T16:28:35.232Z,3.33
2023-03-29T16:31:03.743Z,3.78
2023-03-29T16:33:32.843Z,3.00
2023-03-29T16:36:01.374Z,3.90
2023-03-29T16:38:29.749Z,3.75
2023-03-29T16:40:59.348Z,3.65
2023-03-29T16:43:27.766Z,3.50
2023-03-29T16:45:56.898Z,3.72
2023-03-29T16:48:25.353Z,3.67
2023-03-29T16:50:53.625Z,3.65
2023-03-29T16:53:22.287Z,3.90
2023-03-29T16:55:51.284Z,3.80
2023-03-29T16:58:21.462Z,4.00
2023-03-29T17:00:49.763Z,3.70
2023-03-29T17:03:18.000Z,3.75
2023-03-29T17:05:48.702Z,4.30
2023-03-29T17:08:17.175Z,3.78
2023-03-29T17:10:46.338Z,3.90
2023-03-29T17:13:14.822Z,4.90
2023-03-29T17:15:44.894Z,4.43
2023-03-29T17:18:13.995Z,3.70
2023-03-29T17:20:42.474Z,4.38
2023-03-29T17:23:10.982Z,4.35
2023-03-29T17:25:39.148Z,4.13
2023-03-29T17:28:07.414Z,4.57
2023-03-29T17:30:36.233Z,3.78
2023-03-29T17:33:08.122Z,3.70
2023-03-29T17:35:36.615Z,4.25
2023-03-29T17:38:04.882Z,4.32
2023-03-29T17:40:33.025Z,3.40
2023-03-29T17:43:01.414Z,3.75
2023-03-29T17:45:29.645Z,3.38
2023-03-29T17:47:58.135Z,2.90
2023-03-29T17:50:28.178Z,3.25
2023-03-29T17:52:56.541Z,3.15
2023-03-29T17:55:24.680Z,3.10
2023-03-29T17:57:53.053Z,2.95
2023-03-29T18:00:22.140Z,2.85
2023-03-29T18:02:50.766Z,3.63
2023-03-29T18:05:19.344Z,3.35
2023-03-29T18:07:49.161Z,3.92
2023-03-29T18:10:17.917Z,3.88
2023-03-29T18:12:48.622Z,3.35
2023-03-29T18:15:17.519Z,3.72
2023-03-29T18:17:45.967Z,3.55
2023-03-29T18:20:14.665Z,3.78
2023-03-29T18:22:44.751Z,3.70
2023-03-29T18:25:14.612Z,3.60
2023-03-29T18:27:42.836Z,3.47
2023-03-29T18:30:13.862Z,3.33
2023-03-29T18:32:42.486Z,3.40
2023-03-29T18:35:11.581Z,3.60
2023-03-29T18:37:40.434Z,3.60
2023-03-29T18:40:10.296Z,3.40
2023-03-29T18:42:40.050Z,3.67
2023-03-29T18:45:09.457Z,3.40
2023-03-29T18:47:38.149Z,3.58
2023-03-29T18:50:07.877Z,3.08
2023-03-29T18:52:36.510Z,3.22
2023-03-29T18:55:05.659Z,3.05
2023-03-29T18:57:34.212Z,3.55
2023-03-29T19:00:10.646Z,3.63
2023-03-29T19:02:39.161Z,3.55
2023-03-29T19:05:08.965Z,4.20
2023-03-29T19:07:37.475Z,3.38
2023-03-29T19:10:08.477Z,3.50
2023-03-29T19:12:37.107Z,4.10
2023-03-29T19:15:08.094Z,4.55
2023-03-29T19:17:36.354Z,3.95
2023-03-29T19:20:08.932Z,3.90
2023-03-29T19:22:37.279Z,4.03
2023-03-29T19:25:06.616Z,3.67
2023-03-29T19:27:35.659Z,3.55
2023-03-29T19:30:04.351Z,3.53
2023-03-29T19:32:34.271Z,4.68
2023-03-29T19:35:03.020Z,4.00
2023-03-29T19:37:31.622Z,3.88
2023-03-29T19:39:59.747Z,3.70
2023-03-29T19:42:28.130Z,4.07
2023-03-29T19:44:56.511Z,4.30
2023-03-29T19:47:25.091Z,4.63
2023-03-29T19:49:54.917Z,5.18
2023-03-29T19:52:24.089Z,4.53
2023-03-29T19:54:52.572Z,4.30
2023-03-29T19:57:21.465Z,4.85
2023-03-29T19:59:50.042Z,4.43
2023-03-29T20:02:18.308Z,4.63
2023-03-29T20:04:46.789Z,4.35
2023-03-29T20:07:16.618Z,4.60
2023-03-29T20:09:45.480Z,5.05
2023-03-29T20:12:13.752Z,4.85
2023-03-29T20:14:43.388Z,4.63
2023-03-29T20:17:11.734Z,5.30
2023-03-29T20:19:44.224Z,4.78
2023-03-29T20:22:13.600Z,4.40
2023-03-29T20:24:43.215Z,4.65
2023-03-29T20:27:12.084Z,4.78
2023-03-29T20:29:40.442Z,4.85
2023-03-29T20:32:09.140Z,5.10
2023-03-29T20:34:38.037Z,4.80
2023-03-29T20:37:06.410Z,5.10
2023-03-29T20:39:34.753Z,4.93
2023-03-29T20:42:04.421Z,4.47
2023-03-29T20:44:35.247Z,4.97
2023-03-29T20:47:03.851Z,5.50
2023-03-29T20:49:37.401Z,4.60
2023-03-29T20:52:08.667Z,4.38
2023-03-29T20:54:38.804Z,4.63
2023-03-29T20:57:10.363Z,4.57
2023-03-29T20:59:39.015Z,4.50
2023-03-29T21:02:08.601Z,4.28
2023-03-29T21:04:37.115Z,4.10
2023-03-29T21:07:08.193Z,4.82
2023-03-29T21:09:37.236Z,4.53
2023-03-29T21:12:05.813Z,4.50
2023-03-29T21:14:35.543Z,4.70
2023-03-29T21:17:03.826Z,5.10
2023-03-29T21:19:32.368Z,4.38
2023-03-29T21:22:00.578Z,4.15
2023-03-29T21:24:28.826Z,4.45
2023-03-29T21:26:57.096Z,4.20
2023-03-29T21:29:25.775Z,4.18
2023-03-29T21:31:55.893Z,4.68
2023-03-29T21:34:24.324Z,4.25
2023-03-29T21:36:52.580Z,4.35
2023-03-29T21:39:20.782Z,4.57
2023-03-29T21:41:48.972Z,4.40
2023-03-29T21:44:17.362Z,4.25
2023-03-29T21:46:46.357Z,3.88
2023-03-29T21:49:16.109Z,3.90
2023-03-29T21:51:44.406Z,3.90
2023-03-29T21:54:12.846Z,4.15
2023-03-29T21:56:41.142Z,4.18
2023-03-29T21:59:09.543Z,3.75
2023-03-29T22:01:38.045Z,4.43
2023-03-29T22:04:06.935Z,4.55
2023-03-29T22:06:37.126Z,4.05
2023-03-29T22:09:06.177Z,4.00
2023-03-29T22:11:34.681Z,3.80
2023-03-29T22:14:04.214Z,4.10
2023-03-29T22:16:32.616Z,3.97
2023-03-29T22:19:01.178Z,4.13
2023-03-29T22:21:31.172Z,4.05
2023-03-29T22:24:01.889Z,4.20
2023-03-29T22:26:32.135Z,3.95
2023-03-29T22:29:02.030Z,4.43
2023-03-29T22:31:32.570Z,4.40
2023-03-29T22:34:02.724Z,3.65
2023-03-29T22:36:32.592Z,4.13
2023-03-29T22:39:02.237Z,4.13
2023-03-29T22:41:30.673Z,3.83
2023-03-29T22:44:01.019Z,4.20
2023-03-29T22:46:29.497Z,4.68
2023-03-29T22:48:57.726Z,4.13
2023-03-29T22:51:26.238Z,3.85
2023-03-29T22:53:54.783Z,3.75
2023-03-29T22:56:24.793Z,4.18
2023-03-29T22:58:53.279Z,4.07
2023-03-29T23:01:21.534Z,3.92
2023-03-29T23:03:50.173Z,4.15
2023-03-29T23:06:18.522Z,3.72
2023-03-29T23:08:46.823Z,3.95
2023-03-29T23:11:15.369Z,3.97
2023-03-29T23:13:48.646Z,3.80
2023-03-29T23:16:20.646Z,3.80
2023-03-29T23:18:49.450Z,3.90
2023-03-29T23:21:17.757Z,3.45
2023-03-29T23:23:46.075Z,3.90
2023-03-29T23:26:14.396Z,3.85
2023-03-29T23:28:44.743Z,3.90
2023-03-29T23:31:17.892Z,3.95
2023-03-29T23:33:46.130Z,3.80
2023-03-29T23:36:16.544Z,4.00
2023-03-29T23:38:46.208Z,4.18
2023-03-29T23:41:15.126Z,4.70
2023-03-29T23:43:47.403Z,4.05
2023-03-29T23:46:17.479Z,3.90
2023-03-29T23:48:47.145Z,4.07
2023-03-29T23:51:18.156Z,3.35
2023-03-29T23:53:47.427Z,3.78
2023-03-29T23:56:15.698Z,3.85
2023-03-29T23:58:45.590Z,4.60
